PWSweather.com
Personal Weather Stations
Station Observations
KNVELKO7
Elko, NV 89801

Elko, NV 89801

Lat: 40.963233, Lon: -115.592836

Elevation: 5230

Station Type: WS-2812

Latest ConditionsUpdated 8:13:09 AM PDT Wednesday, Jul 27, 2016
Currently Today's Max Today's Min Today's Average
Temperature 68.8°F20.4°C 68.8°F20.4°C 49.1°F9.5°C 56.6°F13.7°C
Dew Point 38.4°F3.6°C 38.4°F3.6°C 17.4°F-8.1°C 24.5°F-4.2°C
Winds 5.1 mph ENE8.2 kmh ENE 6.7 mph 10.8 kmh - 2.5 mph 4.0 kmh
Wind Gusts 5.6 mph9.0 kmh 7.4 mph11.9 kmh - -
Humidity 33% 39% 18% 30%
Pressure 30.22 in1023.4 mb 30.22 in1023.4 mb 30.15 in1021.0 mb -
Hour Temp Dew Point Humidity Winds Wind Gusts Pressure Precip Precip Rate Daily Precip Total
08:13 AM 68.8°F20.4°C 38.4°F3.6°C 33% 5.1 mph ENE8.2 kmh ENE 5.6 mph9.0 kmh 30.22 in1023.4 mb 0.00 in0.0 mm 0.00 in0.0 mm 0.00 in0.0 mm
08:08 AM 67.7°F19.8°C 37.4°F3.0°C 33% 4.8 mph ENE7.7 kmh ENE 5.6 mph9.0 kmh 30.22 in1023.4 mb 0.00 in0.0 mm 0.00 in0.0 mm 0.00 in0.0 mm
08:03 AM 66.8°F19.3°C 37.4°F3.0°C 34% 3.8 mph ENE6.1 kmh ENE 5.4 mph8.7 kmh 30.22 in1023.4 mb 0.00 in0.0 mm 0.00 in0.0 mm 0.00 in0.0 mm
07:58 AM 66.1°F18.9°C 36.7°F2.6°C 34% 4.5 mph E7.2 kmh E 4.9 mph7.9 kmh 30.22 in1023.4 mb 0.00 in0.0 mm 0.00 in0.0 mm 0.00 in0.0 mm
07:53 AM 65.2°F18.4°C 35.9°F2.2°C 34% 4.4 mph E7.1 kmh E 4.9 mph7.9 kmh 30.22 in1023.4 mb 0.00 in0.0 mm 0.00 in0.0 mm 0.00 in0.0 mm
07:48 AM 64.3°F17.9°C 36.5°F2.5°C 36% 3.7 mph E6.0 kmh E 4.7 mph7.6 kmh 30.22 in1023.4 mb 0.00 in0.0 mm 0.00 in0.0 mm 0.00 in0.0 mm
07:43 AM 63.4°F17.4°C 35.7°F2.1°C 36% 4.1 mph E6.6 kmh E 4.9 mph7.9 kmh 30.22 in1023.4 mb 0.00 in0.0 mm 0.00 in0.0 mm 0.00 in0.0 mm
07:38 AM 62.5°F16.9°C 34.9°F1.6°C 36% 4.0 mph E6.4 kmh E 5.4 mph8.7 kmh 30.22 in1023.4 mb 0.00 in0.0 mm 0.00 in0.0 mm 0.00 in0.0 mm
07:33 AM 61.6°F16.4°C 34.8°F1.6°C 37% 4.0 mph E6.4 kmh E 5.4 mph8.7 kmh 30.21 in1023.0 mb 0.00 in0.0 mm 0.00 in0.0 mm 0.00 in0.0 mm
07:28 AM 60.8°F16.0°C 33.5°F0.8°C 36% 4.2 mph ESE6.8 kmh ESE 5.1 mph8.2 kmh 30.21 in1023.0 mb 0.00 in0.0 mm 0.00 in0.0 mm 0.00 in0.0 mm
07:23 AM 60.1°F15.6°C 32.9°F0.5°C 36% 3.7 mph E6.0 kmh E 5.1 mph8.2 kmh 30.21 in1023.0 mb 0.00 in0.0 mm 0.00 in0.0 mm 0.00 in0.0 mm
07:18 AM 59.8°F15.4°C 32.6°F0.3°C 36% 4.5 mph E7.2 kmh E 4.7 mph7.6 kmh 30.21 in1023.0 mb 0.00 in0.0 mm 0.00 in0.0 mm 0.00 in0.0 mm
07:13 AM 59.4°F15.2°C 32.9°F0.5°C 37% 3.3 mph ENE5.3 kmh ENE 4.7 mph7.6 kmh 30.21 in1023.0 mb 0.00 in0.0 mm 0.00 in0.0 mm 0.00 in0.0 mm
07:08 AM 58.9°F14.9°C 32.5°F0.3°C 37% 3.1 mph ESE5.0 kmh ESE 4.0 mph6.4 kmh 30.21 in1023.0 mb 0.00 in0.0 mm 0.00 in0.0 mm 0.00 in0.0 mm
07:03 AM 58.5°F14.7°C 32.1°F0.1°C 37% 3.3 mph ESE5.3 kmh ESE 4.0 mph6.4 kmh 30.21 in1023.0 mb 0.00 in0.0 mm 0.00 in0.0 mm 0.00 in0.0 mm
06:57 AM 57.8°F14.3°C 31.5°F-0.3°C 37% Calm Calm 1.6 mph2.6 kmh 30.21 in1023.0 mb 0.00 in0.0 mm 0.00 in0.0 mm 0.00 in0.0 mm
06:52 AM 56.9°F13.8°C 30.0°F-1.1°C 36% 1.3 mph ENE2.1 kmh ENE 2.5 mph4.0 kmh 30.21 in1023.0 mb 0.00 in0.0 mm 0.00 in0.0 mm 0.00 in0.0 mm
06:47 AM 56.2°F13.4°C 29.3°F-1.5°C 36% 1.1 mph WNW1.8 kmh WNW 2.5 mph4.0 kmh 30.21 in1023.0 mb 0.00 in0.0 mm 0.00 in0.0 mm 0.00 in0.0 mm
06:42 AM 55.1°F12.8°C 29.8°F-1.2°C 38% 1.6 mph NE2.6 kmh NE 1.6 mph2.6 kmh 30.21 in1023.0 mb 0.00 in0.0 mm 0.00 in0.0 mm 0.00 in0.0 mm
06:37 AM 53.8°F12.1°C 28.7°F-1.8°C 38% Calm Calm 2.2 mph3.5 kmh 30.21 in1023.0 mb 0.00 in0.0 mm 0.00 in0.0 mm 0.00 in0.0 mm
06:33 AM 52.9°F11.6°C 27.2°F-2.7°C 37% 0.6 mph NE1.0 kmh NE 2.2 mph3.5 kmh 30.20 in1022.7 mb 0.00 in0.0 mm 0.00 in0.0 mm 0.00 in0.0 mm
06:28 AM 52.4°F11.3°C 26.7°F-2.9°C 37% 1.9 mph 3.1 kmh 2.2 mph3.5 kmh 30.21 in1023.0 mb 0.00 in0.0 mm 0.00 in0.0 mm 0.00 in0.0 mm
06:23 AM 51.7°F10.9°C 26.7°F-2.9°C 38% Calm Calm 0.4 mph0.6 kmh 30.21 in1023.0 mb 0.00 in0.0 mm 0.00 in0.0 mm 0.00 in0.0 mm
06:18 AM 50.9°F10.5°C 26.7°F-2.9°C 39% Calm Calm 1.6 mph2.6 kmh 30.20 in1022.7 mb 0.00 in0.0 mm 0.00 in0.0 mm 0.00 in0.0 mm
06:13 AM 50.2°F10.1°C 26.1°F-3.3°C 39% 1.2 mph SE1.9 kmh SE 1.6 mph2.6 kmh 30.20 in1022.7 mb 0.00 in0.0 mm 0.00 in0.0 mm 0.00 in0.0 mm
06:08 AM 49.7°F9.8°C 24.9°F-3.9°C 38% 1.5 mph ENE2.4 kmh ENE 1.6 mph2.6 kmh 30.21 in1023.0 mb 0.00 in0.0 mm 0.00 in0.0 mm 0.00 in0.0 mm
06:03 AM 49.5°F9.7°C 24.9°F-3.9°C 38% Calm Calm 2.0 mph3.2 kmh 30.21 in1023.0 mb 0.00 in0.0 mm 0.00 in0.0 mm 0.00 in0.0 mm
05:57 AM 49.3°F9.6°C 23.9°F-4.5°C 37% 0.4 mph NE0.6 kmh NE 2.5 mph4.0 kmh 30.21 in1023.0 mb 0.00 in0.0 mm 0.00 in0.0 mm 0.00 in0.0 mm
05:52 AM 49.1°F9.5°C 23.1°F-4.9°C 36% 1.9 mph NE3.1 kmh NE 3.4 mph5.5 kmh 30.20 in1022.7 mb 0.00 in0.0 mm 0.00 in0.0 mm 0.00 in0.0 mm
05:47 AM 49.3°F9.6°C 23.3°F-4.8°C 36% 2.0 mph 3.2 kmh 3.4 mph5.5 kmh 30.20 in1022.7 mb 0.00 in0.0 mm 0.00 in0.0 mm 0.00 in0.0 mm
05:42 AM 49.3°F9.6°C 23.3°F-4.8°C 36% Calm Calm 2.9 mph4.7 kmh 30.20 in1022.7 mb 0.00 in0.0 mm 0.00 in0.0 mm 0.00 in0.0 mm
05:37 AM 49.7°F9.8°C 23.6°F-4.7°C 36% 1.8 mph E2.9 kmh E 2.9 mph4.7 kmh 30.20 in1022.7 mb 0.00 in0.0 mm 0.00 in0.0 mm 0.00 in0.0 mm
05:32 AM 49.9°F9.9°C 23.8°F-4.6°C 36% 1.3 mph NNW2.1 kmh NNW 2.7 mph4.3 kmh 30.19 in1022.4 mb 0.00 in0.0 mm 0.00 in0.0 mm 0.00 in0.0 mm
05:27 AM 50.2°F10.1°C 24.8°F-4.0°C 37% 1.8 mph W2.9 kmh W 4.0 mph6.4 kmh 30.19 in1022.4 mb 0.00 in0.0 mm 0.00 in0.0 mm 0.00 in0.0 mm
05:22 AM 50.8°F10.4°C 24.6°F-4.1°C 36% 3.1 mph E5.0 kmh E 4.0 mph6.4 kmh 30.19 in1022.4 mb 0.00 in0.0 mm 0.00 in0.0 mm 0.00 in0.0 mm
05:17 AM 51.3°F10.7°C 25.0°F-3.9°C 36% 3.3 mph ESE5.3 kmh ESE 3.8 mph6.1 kmh 30.19 in1022.4 mb 0.00 in0.0 mm 0.00 in0.0 mm 0.00 in0.0 mm
05:12 AM 51.7°F10.9°C 25.4°F-3.7°C 36% 1.9 mph E3.1 kmh E 6.9 mph11.1 kmh 30.19 in1022.4 mb 0.00 in0.0 mm 0.00 in0.0 mm 0.00 in0.0 mm
05:07 AM 52.2°F11.2°C 25.8°F-3.4°C 36% 5.1 mph ENE8.2 kmh ENE 6.9 mph11.1 kmh 30.19 in1022.4 mb 0.00 in0.0 mm 0.00 in0.0 mm 0.00 in0.0 mm
05:03 AM 52.6°F11.4°C 26.2°F-3.2°C 36% 6.2 mph NE10.0 kmh NE 6.9 mph11.1 kmh 30.19 in1022.4 mb 0.00 in0.0 mm 0.00 in0.0 mm 0.00 in0.0 mm
04:57 AM 52.9°F11.6°C 25.1°F-3.8°C 34% 1.4 mph E2.3 kmh E 2.7 mph4.3 kmh 30.19 in1022.4 mb 0.00 in0.0 mm 0.00 in0.0 mm 0.00 in0.0 mm
04:52 AM 52.9°F11.6°C 25.1°F-3.8°C 34% 1.8 mph 2.9 kmh 5.4 mph8.7 kmh 30.18 in1022.0 mb 0.00 in0.0 mm 0.00 in0.0 mm 0.00 in0.0 mm
04:47 AM 52.7°F11.5°C 24.9°F-3.9°C 34% 4.5 mph ENE7.2 kmh ENE 5.4 mph8.7 kmh 30.18 in1022.0 mb 0.00 in0.0 mm 0.00 in0.0 mm 0.00 in0.0 mm
04:42 AM 52.4°F11.3°C 26.0°F-3.3°C 36% 4.2 mph ENE6.8 kmh ENE 4.5 mph7.2 kmh 30.18 in1022.0 mb 0.00 in0.0 mm 0.00 in0.0 mm 0.00 in0.0 mm
04:37 AM 52.2°F11.2°C 23.8°F-4.6°C 33% 2.3 mph NNE3.7 kmh NNE 2.7 mph4.3 kmh 30.18 in1022.0 mb 0.00 in0.0 mm 0.00 in0.0 mm 0.00 in0.0 mm
04:32 AM 52.4°F11.3°C 23.9°F-4.5°C 33% 1.5 mph 2.4 kmh 2.5 mph4.0 kmh 30.18 in1022.0 mb 0.00 in0.0 mm 0.00 in0.0 mm 0.00 in0.0 mm
04:27 AM 52.6°F11.4°C 23.4°F-4.8°C 32% 1.7 mph 2.7 kmh 2.7 mph4.3 kmh 30.18 in1022.0 mb 0.00 in0.0 mm 0.00 in0.0 mm 0.00 in0.0 mm
04:22 AM 52.7°F11.5°C 24.3°F-4.3°C 33% 1.6 mph ENE2.6 kmh ENE 2.9 mph4.7 kmh 30.18 in1022.0 mb 0.00 in0.0 mm 0.00 in0.0 mm 0.00 in0.0 mm
04:17 AM 52.4°F11.3°C 23.3°F-4.8°C 32% 2.5 mph NNE4.0 kmh NNE 3.6 mph5.8 kmh 30.18 in1022.0 mb 0.00 in0.0 mm 0.00 in0.0 mm 0.00 in0.0 mm
04:12 AM 52.6°F11.4°C 23.4°F-4.8°C 32% 1.8 mph ENE2.9 kmh ENE 3.6 mph5.8 kmh 30.18 in1022.0 mb 0.00 in0.0 mm 0.00 in0.0 mm 0.00 in0.0 mm
04:07 AM 52.7°F11.5°C 23.0°F-5.0°C 31% 2.8 mph NNE4.5 kmh NNE 3.1 mph5.0 kmh 30.18 in1022.0 mb 0.00 in0.0 mm 0.00 in0.0 mm 0.00 in0.0 mm
04:02 AM 52.9°F11.6°C 24.5°F-4.2°C 33% 1.1 mph ENE1.8 kmh ENE 5.4 mph8.7 kmh 30.18 in1022.0 mb 0.00 in0.0 mm 0.00 in0.0 mm 0.00 in0.0 mm
03:57 AM 53.3°F11.8°C 25.5°F-3.6°C 34% 3.5 mph ENE5.6 kmh ENE 5.6 mph9.0 kmh 30.17 in1021.7 mb 0.00 in0.0 mm 0.00 in0.0 mm 0.00 in0.0 mm
03:52 AM 53.3°F11.8°C 25.5°F-3.6°C 34% 5.5 mph ENE8.9 kmh ENE 5.6 mph9.0 kmh 30.17 in1021.7 mb 0.00 in0.0 mm 0.00 in0.0 mm 0.00 in0.0 mm
03:47 AM 53.6°F12.0°C 24.4°F-4.2°C 32% 3.9 mph E6.3 kmh E 6.0 mph9.7 kmh 30.17 in1021.7 mb 0.00 in0.0 mm 0.00 in0.0 mm 0.00 in0.0 mm
03:42 AM 53.8°F12.1°C 23.9°F-4.5°C 31% 3.5 mph E5.6 kmh E 6.0 mph9.7 kmh 30.17 in1021.7 mb 0.00 in0.0 mm 0.00 in0.0 mm 0.00 in0.0 mm
03:37 AM 54.5°F12.5°C 24.5°F-4.2°C 31% 4.4 mph E7.1 kmh E 5.8 mph9.3 kmh 30.17 in1021.7 mb 0.00 in0.0 mm 0.00 in0.0 mm 0.00 in0.0 mm
03:32 AM 55.4°F13.0°C 23.6°F-4.7°C 29% 3.8 mph E6.1 kmh E 4.5 mph7.2 kmh 30.17 in1021.7 mb 0.00 in0.0 mm 0.00 in0.0 mm 0.00 in0.0 mm
03:27 AM 56.0°F13.3°C 24.0°F-4.4°C 29% 1.4 mph E2.3 kmh E 4.7 mph7.6 kmh 30.17 in1021.7 mb 0.00 in0.0 mm 0.00 in0.0 mm 0.00 in0.0 mm
03:22 AM 55.8°F13.2°C 23.0°F-5.0°C 28% 2.7 mph NE4.3 kmh NE 4.7 mph7.6 kmh 30.17 in1021.7 mb 0.00 in0.0 mm 0.00 in0.0 mm 0.00 in0.0 mm
03:17 AM 56.2°F13.4°C 23.2°F-4.9°C 28% 3.9 mph E6.3 kmh E 4.7 mph7.6 kmh 30.17 in1021.7 mb 0.00 in0.0 mm 0.00 in0.0 mm 0.00 in0.0 mm
03:12 AM 56.2°F13.4°C 22.3°F-5.4°C 27% 2.6 mph NNE4.2 kmh NNE 3.4 mph5.5 kmh 30.16 in1021.3 mb 0.00 in0.0 mm 0.00 in0.0 mm 0.00 in0.0 mm
03:07 AM 56.7°F13.7°C 22.8°F-5.1°C 27% 2.2 mph NE3.5 kmh NE 4.3 mph6.9 kmh 30.17 in1021.7 mb 0.00 in0.0 mm 0.00 in0.0 mm 0.00 in0.0 mm
03:02 AM 57.1°F13.9°C 24.0°F-4.4°C 28% 2.3 mph NNE3.7 kmh NNE 4.9 mph7.9 kmh 30.17 in1021.7 mb 0.00 in0.0 mm 0.00 in0.0 mm 0.00 in0.0 mm
02:56 AM 56.0°F13.3°C 23.0°F-5.0°C 28% 4.1 mph NNE6.6 kmh NNE 4.9 mph7.9 kmh 30.17 in1021.7 mb 0.00 in0.0 mm 0.00 in0.0 mm 0.00 in0.0 mm
02:51 AM 55.3°F12.9°C 21.5°F-5.8°C 27% 4.0 mph NNE6.4 kmh NNE 4.7 mph7.6 kmh 30.17 in1021.7 mb 0.00 in0.0 mm 0.00 in0.0 mm 0.00 in0.0 mm
02:47 AM 55.1°F12.8°C 19.5°F-6.9°C 25% 4.3 mph 6.9 kmh 4.5 mph7.2 kmh 30.17 in1021.7 mb 0.00 in0.0 mm 0.00 in0.0 mm 0.00 in0.0 mm
02:42 AM 55.3°F12.9°C 19.6°F-6.9°C 25% 2.0 mph 3.2 kmh 3.6 mph5.8 kmh 30.16 in1021.3 mb 0.00 in0.0 mm 0.00 in0.0 mm 0.00 in0.0 mm
02:37 AM 55.6°F13.1°C 20.0°F-6.7°C 25% 2.3 mph NNW3.7 kmh NNW 2.7 mph4.3 kmh 30.16 in1021.3 mb 0.00 in0.0 mm 0.00 in0.0 mm 0.00 in0.0 mm
02:32 AM 55.8°F13.2°C 20.1°F-6.6°C 25% 1.1 mph NNE1.8 kmh NNE 3.1 mph5.0 kmh 30.16 in1021.3 mb 0.00 in0.0 mm 0.00 in0.0 mm 0.00 in0.0 mm
02:27 AM 55.8°F13.2°C 19.2°F-7.1°C 24% 2.6 mph N4.2 kmh N 3.4 mph5.5 kmh 30.16 in1021.3 mb 0.00 in0.0 mm 0.00 in0.0 mm 0.00 in0.0 mm
02:22 AM 55.8°F13.2°C 19.2°F-7.1°C 24% 2.0 mph 3.2 kmh 3.4 mph5.5 kmh 30.16 in1021.3 mb 0.00 in0.0 mm 0.00 in0.0 mm 0.00 in0.0 mm
02:17 AM 56.2°F13.4°C 19.4°F-7.0°C 24% 0.4 mph E0.6 kmh E 2.7 mph4.3 kmh 30.16 in1021.3 mb 0.00 in0.0 mm 0.00 in0.0 mm 0.00 in0.0 mm
02:12 AM 56.2°F13.4°C 20.4°F-6.4°C 25% 1.8 mph ENE2.9 kmh ENE 3.1 mph5.0 kmh 30.16 in1021.3 mb 0.00 in0.0 mm 0.00 in0.0 mm 0.00 in0.0 mm
02:07 AM 56.0°F13.3°C 19.4°F-7.0°C 24% 2.4 mph 3.9 kmh 3.8 mph6.1 kmh 30.16 in1021.3 mb 0.00 in0.0 mm 0.00 in0.0 mm 0.00 in0.0 mm
02:02 AM 56.7°F13.7°C 18.0°F-7.8°C 22% 2.3 mph 3.7 kmh 3.8 mph6.1 kmh 30.16 in1021.3 mb 0.00 in0.0 mm 0.00 in0.0 mm 0.00 in0.0 mm
01:56 AM 57.8°F14.3°C 19.9°F-6.7°C 23% 1.9 mph 3.1 kmh 2.0 mph3.2 kmh 30.16 in1021.3 mb 0.00 in0.0 mm 0.00 in0.0 mm 0.00 in0.0 mm
01:51 AM 58.1°F14.5°C 21.2°F-6.0°C 24% 0.7 mph NE1.1 kmh NE 4.3 mph6.9 kmh 30.16 in1021.3 mb 0.00 in0.0 mm 0.00 in0.0 mm 0.00 in0.0 mm
01:46 AM 58.1°F14.5°C 21.2°F-6.0°C 24% 1.7 mph NE2.7 kmh NE 4.3 mph6.9 kmh 30.16 in1021.3 mb 0.00 in0.0 mm 0.00 in0.0 mm 0.00 in0.0 mm
01:41 AM 58.0°F14.4°C 19.1°F-7.2°C 22% 3.1 mph NE5.0 kmh NE 4.0 mph6.4 kmh 30.16 in1021.3 mb 0.00 in0.0 mm 0.00 in0.0 mm 0.00 in0.0 mm
01:36 AM 57.8°F14.3°C 18.9°F-7.3°C 22% 1.1 mph NNW1.8 kmh NNW 1.8 mph2.9 kmh 30.16 in1021.3 mb 0.00 in0.0 mm 0.00 in0.0 mm 0.00 in0.0 mm
01:31 AM 57.8°F14.3°C 18.9°F-7.3°C 22% 1.1 mph E1.8 kmh E 1.3 mph2.1 kmh 30.16 in1021.3 mb 0.00 in0.0 mm 0.00 in0.0 mm 0.00 in0.0 mm
01:26 AM 58.1°F14.5°C 18.3°F-7.6°C 21% 1.2 mph NNE1.9 kmh NNE 2.5 mph4.0 kmh 30.16 in1021.3 mb 0.00 in0.0 mm 0.00 in0.0 mm 0.00 in0.0 mm
01:21 AM 58.5°F14.7°C 17.6°F-8.0°C 20% 2.3 mph SE3.7 kmh SE 3.4 mph5.5 kmh 30.16 in1021.3 mb 0.00 in0.0 mm 0.00 in0.0 mm 0.00 in0.0 mm
01:17 AM 58.7°F14.8°C 17.7°F-7.9°C 20% 0.8 mph 1.3 kmh 4.9 mph7.9 kmh 30.16 in1021.3 mb 0.00 in0.0 mm 0.00 in0.0 mm 0.00 in0.0 mm
01:12 AM 59.0°F15.0°C 19.0°F-7.2°C 21% 3.1 mph 5.0 kmh 4.9 mph7.9 kmh 30.16 in1021.3 mb 0.00 in0.0 mm 0.00 in0.0 mm 0.00 in0.0 mm
01:07 AM 59.4°F15.2°C 19.3°F-7.1°C 21% 2.7 mph N4.3 kmh N 4.0 mph6.4 kmh 30.16 in1021.3 mb 0.00 in0.0 mm 0.00 in0.0 mm 0.00 in0.0 mm
01:02 AM 60.1°F15.6°C 17.4°F-8.1°C 19% 2.8 mph NNE4.5 kmh NNE 3.4 mph5.5 kmh 30.16 in1021.3 mb 0.00 in0.0 mm 0.00 in0.0 mm 0.00 in0.0 mm
12:56 AM 60.8°F16.0°C 19.6°F-6.9°C 20% 0.9 mph SE1.4 kmh SE 4.3 mph6.9 kmh 30.16 in1021.3 mb 0.00 in0.0 mm 0.00 in0.0 mm 0.00 in0.0 mm
12:51 AM 61.6°F16.4°C 18.6°F-7.4°C 19% 2.3 mph SE3.7 kmh SE 4.3 mph6.9 kmh 30.16 in1021.3 mb 0.00 in0.0 mm 0.00 in0.0 mm 0.00 in0.0 mm
12:46 AM 62.1°F16.7°C 19.1°F-7.2°C 19% 1.0 mph SE1.6 kmh SE 1.8 mph2.9 kmh 30.16 in1021.3 mb 0.00 in0.0 mm 0.00 in0.0 mm 0.00 in0.0 mm
12:41 AM 62.3°F16.8°C 19.2°F-7.1°C 19% 1.4 mph 2.3 kmh 5.4 mph8.7 kmh 30.16 in1021.3 mb 0.00 in0.0 mm 0.00 in0.0 mm 0.00 in0.0 mm
12:36 AM 62.3°F16.8°C 19.2°F-7.1°C 19% 3.0 mph 4.8 kmh 7.4 mph11.9 kmh 30.15 in1021.0 mb 0.00 in0.0 mm 0.00 in0.0 mm 0.00 in0.0 mm
12:31 AM 62.5°F16.9°C 19.4°F-7.0°C 19% 6.7 mph 10.8 kmh 7.4 mph11.9 kmh 30.16 in1021.3 mb 0.00 in0.0 mm 0.00 in0.0 mm 0.00 in0.0 mm
12:26 AM 62.6°F17.0°C 17.9°F-7.8°C 18% 4.7 mph N7.6 kmh N 4.9 mph7.9 kmh 30.16 in1021.3 mb 0.00 in0.0 mm 0.00 in0.0 mm 0.00 in0.0 mm
12:21 AM 63.4°F17.4°C 18.5°F-7.5°C 18% 2.9 mph N4.7 kmh N 4.5 mph7.2 kmh 30.16 in1021.3 mb 0.00 in0.0 mm 0.00 in0.0 mm 0.00 in0.0 mm
12:16 AM 63.7°F17.6°C 18.8°F-7.3°C 18% 4.0 mph N6.4 kmh N 4.0 mph6.4 kmh 30.16 in1021.3 mb 0.00 in0.0 mm 0.00 in0.0 mm 0.00 in0.0 mm
12:11 AM 64.4°F18.0°C 19.4°F-7.0°C 18% 3.3 mph 5.3 kmh 4.7 mph7.6 kmh 30.16 in1021.3 mb 0.00 in0.0 mm 0.00 in0.0 mm 0.00 in0.0 mm
12:06 AM 64.4°F18.0°C 19.4°F-7.0°C 18% 1.1 mph 1.8 kmh 4.7 mph7.6 kmh 30.16 in1021.3 mb 0.00 in0.0 mm 0.00 in0.0 mm 0.00 in0.0 mm
12:01 AM 63.4°F17.4°C 18.5°F-7.5°C 18% 3.5 mph NNE5.6 kmh NNE 3.8 mph6.1 kmh 30.15 in1021.0 mb 0.00 in0.0 mm 0.00 in0.0 mm 0.00 in0.0 mm